sensor_id;sensor_type;location;lat;lon;timestamp;P1;durP1;ratioP1;P2;durP2;ratioP2
15412;SDS011;7805;49.554;7.632;2023-11-25T00:01:37;4.10;;;1.37;;
15412;SDS011;7805;49.554;7.632;2023-11-25T00:04:03;4.20;;;1.33;;
15412;SDS011;7805;49.554;7.632;2023-11-25T00:06:28;3.10;;;1.10;;
15412;SDS011;7805;49.554;7.632;2023-11-25T00:08:55;6.57;;;1.17;;
15412;SDS011;7805;49.554;7.632;2023-11-25T00:11:22;3.33;;;0.80;;
15412;SDS011;7805;49.554;7.632;2023-11-25T00:13:47;3.37;;;1.30;;
15412;SDS011;7805;49.554;7.632;2023-11-25T00:16:13;6.07;;;1.43;;
15412;SDS011;7805;49.554;7.632;2023-11-25T00:18:38;5.60;;;1.10;;
15412;SDS011;7805;49.554;7.632;2023-11-25T00:21:04;6.17;;;1.53;;
15412;SDS011;7805;49.554;7.632;2023-11-25T00:23:29;8.33;;;1.80;;
15412;SDS011;7805;49.554;7.632;2023-11-25T00:25:55;4.67;;;1.80;;
15412;SDS011;7805;49.554;7.632;2023-11-25T00:28:20;4.87;;;2.00;;
15412;SDS011;7805;49.554;7.632;2023-11-25T00:30:46;7.97;;;2.00;;
15412;SDS011;7805;49.554;7.632;2023-11-25T00:33:12;6.97;;;2.27;;
15412;SDS011;7805;49.554;7.632;2023-11-25T00:35:38;6.77;;;1.80;;
15412;SDS011;7805;49.554;7.632;2023-11-25T00:38:05;3.93;;;1.27;;
15412;SDS011;7805;49.554;7.632;2023-11-25T00:40:33;5.27;;;1.30;;
15412;SDS011;7805;49.554;7.632;2023-11-25T00:42:59;4.07;;;1.30;;
15412;SDS011;7805;49.554;7.632;2023-11-25T00:45:25;10.90;;;4.33;;
15412;SDS011;7805;49.554;7.632;2023-11-25T00:47:52;9.30;;;2.30;;
15412;SDS011;7805;49.554;7.632;2023-11-25T00:50:18;5.47;;;2.70;;
15412;SDS011;7805;49.554;7.632;2023-11-25T00:52:44;5.57;;;2.60;;
15412;SDS011;7805;49.554;7.632;2023-11-25T00:55:10;2.80;;;1.73;;
15412;SDS011;7805;49.554;7.632;2023-11-25T00:57:36;7.80;;;1.70;;
15412;SDS011;7805;49.554;7.632;2023-11-25T01:00:03;6.20;;;2.40;;
15412;SDS011;7805;49.554;7.632;2023-11-25T01:02:29;8.10;;;2.67;;
15412;SDS011;7805;49.554;7.632;2023-11-25T01:04:55;8.67;;;2.30;;
15412;SDS011;7805;49.554;7.632;2023-11-25T01:07:21;5.00;;;2.37;;
15412;SDS011;7805;49.554;7.632;2023-11-25T01:09:47;7.70;;;2.20;;
15412;SDS011;7805;49.554;7.632;2023-11-25T01:12:13;9.30;;;2.87;;
15412;SDS011;7805;49.554;7.632;2023-11-25T01:14:39;18.33;;;9.33;;
15412;SDS011;7805;49.554;7.632;2023-11-25T01:17:05;17.93;;;9.37;;
15412;SDS011;7805;49.554;7.632;2023-11-25T01:19:30;19.03;;;10.10;;
15412;SDS011;7805;49.554;7.632;2023-11-25T01:21:57;14.00;;;6.67;;
15412;SDS011;7805;49.554;7.632;2023-11-25T01:24:22;14.50;;;6.50;;
15412;SDS011;7805;49.554;7.632;2023-11-25T01:26:48;7.67;;;3.93;;
15412;SDS011;7805;49.554;7.632;2023-11-25T01:29:14;6.83;;;1.83;;
15412;SDS011;7805;49.554;7.632;2023-11-25T01:31:42;5.10;;;1.80;;
15412;SDS011;7805;49.554;7.632;2023-11-25T01:34:08;3.63;;;1.60;;
15412;SDS011;7805;49.554;7.632;2023-11-25T01:36:34;3.70;;;1.47;;
15412;SDS011;7805;49.554;7.632;2023-11-25T01:38:59;6.73;;;2.87;;
15412;SDS011;7805;49.554;7.632;2023-11-25T01:41:25;7.77;;;3.13;;
15412;SDS011;7805;49.554;7.632;2023-11-25T01:43:50;9.67;;;4.73;;
15412;SDS011;7805;49.554;7.632;2023-11-25T01:46:25;9.90;;;6.23;;
15412;SDS011;7805;49.554;7.632;2023-11-25T01:49:01;9.33;;;4.17;;
15412;SDS011;7805;49.554;7.632;2023-11-25T01:51:27;5.73;;;3.20;;
15412;SDS011;7805;49.554;7.632;2023-11-25T01:53:53;5.47;;;2.30;;
15412;SDS011;7805;49.554;7.632;2023-11-25T01:56:19;2.83;;;1.47;;
15412;SDS011;7805;49.554;7.632;2023-11-25T01:58:45;2.50;;;1.30;;
15412;SDS011;7805;49.554;7.632;2023-11-25T02:01:11;5.30;;;1.37;;
15412;SDS011;7805;49.554;7.632;2023-11-25T02:03:37;1.20;;;0.90;;
15412;SDS011;7805;49.554;7.632;2023-11-25T02:06:02;3.73;;;1.30;;
15412;SDS011;7805;49.554;7.632;2023-11-25T02:08:28;2.70;;;1.20;;
15412;SDS011;7805;49.554;7.632;2023-11-25T02:10:54;5.73;;;1.33;;
15412;SDS011;7805;49.554;7.632;2023-11-25T02:13:19;2.43;;;1.23;;
15412;SDS011;7805;49.554;7.632;2023-11-25T02:15:45;3.03;;;1.70;;
15412;SDS011;7805;49.554;7.632;2023-11-25T02:18:10;4.07;;;1.50;;
15412;SDS011;7805;49.554;7.632;2023-11-25T02:20:37;2.77;;;1.43;;
15412;SDS011;7805;49.554;7.632;2023-11-25T02:23:15;4.07;;;1.23;;
15412;SDS011;7805;49.554;7.632;2023-11-25T02:25:48;2.87;;;1.40;;
15412;SDS011;7805;49.554;7.632;2023-11-25T02:28:17;8.70;;;1.37;;
15412;SDS011;7805;49.554;7.632;2023-11-25T02:30:47;5.30;;;1.37;;
15412;SDS011;7805;49.554;7.632;2023-11-25T02:33:13;5.23;;;1.30;;
15412;SDS011;7805;49.554;7.632;2023-11-25T02:35:40;4.50;;;1.63;;
15412;SDS011;7805;49.554;7.632;2023-11-25T02:38:07;4.20;;;1.47;;
15412;SDS011;7805;49.554;7.632;2023-11-25T02:40:33;4.17;;;2.10;;
15412;SDS011;7805;49.554;7.632;2023-11-25T02:42:59;5.23;;;2.13;;
15412;SDS011;7805;49.554;7.632;2023-11-25T02:45:25;2.27;;;1.53;;
15412;SDS011;7805;49.554;7.632;2023-11-25T02:47:52;2.57;;;1.07;;
15412;SDS011;7805;49.554;7.632;2023-11-25T02:50:18;3.27;;;1.40;;
15412;SDS011;7805;49.554;7.632;2023-11-25T02:52:44;4.33;;;1.43;;
15412;SDS011;7805;49.554;7.632;2023-11-25T02:55:10;4.53;;;1.40;;
15412;SDS011;7805;49.554;7.632;2023-11-25T02:57:40;4.97;;;1.40;;
15412;SDS011;7805;49.554;7.632;2023-11-25T03:00:13;3.03;;;1.43;;
15412;SDS011;7805;49.554;7.632;2023-11-25T03:03:02;3.37;;;1.33;;
15412;SDS011;7805;49.554;7.632;2023-11-25T03:05:42;5.93;;;2.30;;
15412;SDS011;7805;49.554;7.632;2023-11-25T03:08:12;4.40;;;1.57;;
15412;SDS011;7805;49.554;7.632;2023-11-25T03:10:39;3.63;;;1.50;;
15412;SDS011;7805;49.554;7.632;2023-11-25T03:13:11;4.80;;;1.30;;
15412;SDS011;7805;49.554;7.632;2023-11-25T03:15:38;5.93;;;1.30;;
15412;SDS011;7805;49.554;7.632;2023-11-25T03:18:04;2.70;;;1.17;;
15412;SDS011;7805;49.554;7.632;2023-11-25T03:20:33;4.03;;;1.70;;
15412;SDS011;7805;49.554;7.632;2023-11-25T03:23:03;3.70;;;1.23;;
15412;SDS011;7805;49.554;7.632;2023-11-25T03:25:29;4.67;;;1.67;;
15412;SDS011;7805;49.554;7.632;2023-11-25T03:27:56;5.03;;;1.50;;
15412;SDS011;7805;49.554;7.632;2023-11-25T03:30:22;5.63;;;1.50;;
15412;SDS011;7805;49.554;7.632;2023-11-25T03:32:49;3.43;;;1.30;;
15412;SDS011;7805;49.554;7.632;2023-11-25T03:35:14;4.37;;;1.53;;
15412;SDS011;7805;49.554;7.632;2023-11-25T03:37:41;4.17;;;1.30;;
15412;SDS011;7805;49.554;7.632;2023-11-25T03:40:07;2.30;;;0.90;;
15412;SDS011;7805;49.554;7.632;2023-11-25T03:42:38;3.97;;;1.17;;
15412;SDS011;7805;49.554;7.632;2023-11-25T03:45:04;2.83;;;1.20;;
15412;SDS011;7805;49.554;7.632;2023-11-25T03:47:32;1.83;;;0.90;;
15412;SDS011;7805;49.554;7.632;2023-11-25T03:49:57;3.67;;;1.17;;
15412;SDS011;7805;49.554;7.632;2023-11-25T03:52:23;3.33;;;1.10;;
15412;SDS011;7805;49.554;7.632;2023-11-25T03:54:49;4.03;;;1.40;;
15412;SDS011;7805;49.554;7.632;2023-11-25T03:57:15;2.43;;;1.20;;
15412;SDS011;7805;49.554;7.632;2023-11-25T03:59:41;3.17;;;1.07;;
15412;SDS011;7805;49.554;7.632;2023-11-25T04:02:06;2.87;;;1.47;;
15412;SDS011;7805;49.554;7.632;2023-11-25T04:04:32;3.93;;;1.23;;
15412;SDS011;7805;49.554;7.632;2023-11-25T04:06:58;4.23;;;0.70;;
15412;SDS011;7805;49.554;7.632;2023-11-25T04:09:24;3.10;;;1.37;;
15412;SDS011;7805;49.554;7.632;2023-11-25T04:11:50;6.50;;;1.93;;
15412;SDS011;7805;49.554;7.632;2023-11-25T04:14:16;4.27;;;1.30;;
15412;SDS011;7805;49.554;7.632;2023-11-25T04:16:42;1.80;;;1.03;;
15412;SDS011;7805;49.554;7.632;2023-11-25T04:19:08;2.80;;;1.37;;
15412;SDS011;7805;49.554;7.632;2023-11-25T04:21:35;2.33;;;1.17;;
15412;SDS011;7805;49.554;7.632;2023-11-25T04:24:05;4.30;;;1.60;;
15412;SDS011;7805;49.554;7.632;2023-11-25T04:26:31;4.73;;;1.20;;
15412;SDS011;7805;49.554;7.632;2023-11-25T04:28:57;5.20;;;1.70;;
15412;SDS011;7805;49.554;7.632;2023-11-25T04:31:22;3.33;;;1.33;;
15412;SDS011;7805;49.554;7.632;2023-11-25T04:33:48;5.20;;;1.60;;
15412;SDS011;7805;49.554;7.632;2023-11-25T04:36:14;3.57;;;1.67;;
15412;SDS011;7805;49.554;7.632;2023-11-25T04:38:42;4.13;;;1.63;;
15412;SDS011;7805;49.554;7.632;2023-11-25T04:41:08;4.10;;;1.57;;
15412;SDS011;7805;49.554;7.632;2023-11-25T04:43:33;3.13;;;1.20;;
15412;SDS011;7805;49.554;7.632;2023-11-25T04:45:59;5.23;;;1.27;;
15412;SDS011;7805;49.554;7.632;2023-11-25T04:48:28;4.03;;;1.67;;
15412;SDS011;7805;49.554;7.632;2023-11-25T04:50:54;3.00;;;1.40;;
15412;SDS011;7805;49.554;7.632;2023-11-25T04:53:20;2.20;;;1.27;;
15412;SDS011;7805;49.554;7.632;2023-11-25T04:55:46;1.37;;;1.27;;
15412;SDS011;7805;49.554;7.632;2023-11-25T04:58:11;3.53;;;1.57;;
15412;SDS011;7805;49.554;7.632;2023-11-25T05:00:37;3.77;;;1.40;;
15412;SDS011;7805;49.554;7.632;2023-11-25T05:03:02;3.67;;;1.10;;
15412;SDS011;7805;49.554;7.632;2023-11-25T05:05:30;3.37;;;1.27;;
15412;SDS011;7805;49.554;7.632;2023-11-25T05:07:55;5.57;;;1.47;;
15412;SDS011;7805;49.554;7.632;2023-11-25T05:10:21;5.00;;;1.30;;
15412;SDS011;7805;49.554;7.632;2023-11-25T05:12:47;1.73;;;0.90;;
15412;SDS011;7805;49.554;7.632;2023-11-25T05:15:15;4.03;;;1.57;;
15412;SDS011;7805;49.554;7.632;2023-11-25T05:17:41;2.43;;;1.23;;
15412;SDS011;7805;49.554;7.632;2023-11-25T05:20:08;4.63;;;1.10;;
15412;SDS011;7805;49.554;7.632;2023-11-25T05:22:35;2.47;;;1.53;;
15412;SDS011;7805;49.554;7.632;2023-11-25T05:25:00;5.40;;;2.33;;
15412;SDS011;7805;49.554;7.632;2023-11-25T05:27:26;5.40;;;2.60;;
15412;SDS011;7805;49.554;7.632;2023-11-25T05:29:52;4.47;;;2.07;;
15412;SDS011;7805;49.554;7.632;2023-11-25T05:32:17;4.63;;;2.03;;
15412;SDS011;7805;49.554;7.632;2023-11-25T05:34:43;2.63;;;1.30;;
15412;SDS011;7805;49.554;7.632;2023-11-25T05:37:09;2.87;;;1.20;;
15412;SDS011;7805;49.554;7.632;2023-11-25T05:39:35;2.33;;;1.27;;
15412;SDS011;7805;49.554;7.632;2023-11-25T05:42:01;4.10;;;1.03;;
15412;SDS011;7805;49.554;7.632;2023-11-25T05:44:28;2.37;;;1.17;;
15412;SDS011;7805;49.554;7.632;2023-11-25T05:46:55;4.10;;;2.40;;
15412;SDS011;7805;49.554;7.632;2023-11-25T05:49:21;4.67;;;2.00;;
15412;SDS011;7805;49.554;7.632;2023-11-25T05:51:47;3.47;;;1.90;;
15412;SDS011;7805;49.554;7.632;2023-11-25T05:54:15;2.83;;;1.50;;
15412;SDS011;7805;49.554;7.632;2023-11-25T05:56:42;4.30;;;1.70;;
15412;SDS011;7805;49.554;7.632;2023-11-25T05:59:08;4.77;;;1.97;;
15412;SDS011;7805;49.554;7.632;2023-11-25T06:01:43;3.47;;;1.90;;
15412;SDS011;7805;49.554;7.632;2023-11-25T06:04:11;4.63;;;1.60;;
15412;SDS011;7805;49.554;7.632;2023-11-25T06:06:37;4.57;;;2.20;;
15412;SDS011;7805;49.554;7.632;2023-11-25T06:09:03;4.53;;;1.90;;
15412;SDS011;7805;49.554;7.632;2023-11-25T06:11:30;5.73;;;1.63;;
15412;SDS011;7805;49.554;7.632;2023-11-25T06:13:58;4.60;;;2.13;;
15412;SDS011;7805;49.554;7.632;2023-11-25T06:16:23;5.03;;;1.90;;
15412;SDS011;7805;49.554;7.632;2023-11-25T06:18:50;3.77;;;1.50;;
15412;SDS011;7805;49.554;7.632;2023-11-25T06:21:16;5.63;;;1.60;;
15412;SDS011;7805;49.554;7.632;2023-11-25T06:23:42;6.37;;;2.13;;
15412;SDS011;7805;49.554;7.632;2023-11-25T06:26:08;6.53;;;3.70;;
15412;SDS011;7805;49.554;7.632;2023-11-25T06:28:39;7.73;;;5.43;;
15412;SDS011;7805;49.554;7.632;2023-11-25T06:31:08;8.37;;;4.77;;
15412;SDS011;7805;49.554;7.632;2023-11-25T06:33:35;6.93;;;2.63;;
15412;SDS011;7805;49.554;7.632;2023-11-25T06:36:00;5.20;;;2.83;;
15412;SDS011;7805;49.554;7.632;2023-11-25T06:38:26;14.70;;;7.00;;
15412;SDS011;7805;49.554;7.632;2023-11-25T06:40:51;13.27;;;6.67;;
15412;SDS011;7805;49.554;7.632;2023-11-25T06:43:17;7.00;;;3.93;;
15412;SDS011;7805;49.554;7.632;2023-11-25T06:45:43;6.20;;;3.60;;
15412;SDS011;7805;49.554;7.632;2023-11-25T06:48:09;7.33;;;4.27;;
15412;SDS011;7805;49.554;7.632;2023-11-25T06:50:35;9.23;;;4.87;;
15412;SDS011;7805;49.554;7.632;2023-11-25T06:53:02;16.07;;;8.33;;
15412;SDS011;7805;49.554;7.632;2023-11-25T06:55:28;16.37;;;8.27;;
15412;SDS011;7805;49.554;7.632;2023-11-25T06:57:54;12.73;;;6.87;;
15412;SDS011;7805;49.554;7.632;2023-11-25T07:00:19;10.70;;;5.60;;
15412;SDS011;7805;49.554;7.632;2023-11-25T07:02:45;7.40;;;4.83;;
15412;SDS011;7805;49.554;7.632;2023-11-25T07:05:11;6.53;;;3.47;;
15412;SDS011;7805;49.554;7.632;2023-11-25T07:07:38;12.63;;;8.03;;
15412;SDS011;7805;49.554;7.632;2023-11-25T07:10:06;15.97;;;6.30;;
15412;SDS011;7805;49.554;7.632;2023-11-25T07:12:35;16.67;;;8.07;;
15412;SDS011;7805;49.554;7.632;2023-11-25T07:15:02;15.63;;;6.23;;
15412;SDS011;7805;49.554;7.632;2023-11-25T07:17:29;9.57;;;5.03;;
15412;SDS011;7805;49.554;7.632;2023-11-25T07:19:55;8.40;;;4.80;;
15412;SDS011;7805;49.554;7.632;2023-11-25T07:22:21;11.23;;;3.73;;
15412;SDS011;7805;49.554;7.632;2023-11-25T07:24:46;5.20;;;2.90;;
15412;SDS011;7805;49.554;7.632;2023-11-25T07:27:12;6.80;;;3.13;;
15412;SDS011;7805;49.554;7.632;2023-11-25T07:29:43;8.93;;;4.50;;
15412;SDS011;7805;49.554;7.632;2023-11-25T07:32:11;8.53;;;4.00;;
15412;SDS011;7805;49.554;7.632;2023-11-25T07:34:38;8.70;;;6.67;;
15412;SDS011;7805;49.554;7.632;2023-11-25T07:37:03;8.47;;;5.13;;
15412;SDS011;7805;49.554;7.632;2023-11-25T07:39:30;6.13;;;4.30;;
15412;SDS011;7805;49.554;7.632;2023-11-25T07:41:58;8.17;;;3.70;;
15412;SDS011;7805;49.554;7.632;2023-11-25T07:44:25;6.73;;;3.50;;
15412;SDS011;7805;49.554;7.632;2023-11-25T07:46:57;5.47;;;3.63;;
15412;SDS011;7805;49.554;7.632;2023-11-25T07:49:23;4.57;;;3.30;;
15412;SDS011;7805;49.554;7.632;2023-11-25T07:51:49;10.10;;;3.80;;
15412;SDS011;7805;49.554;7.632;2023-11-25T07:54:14;9.20;;;5.03;;
15412;SDS011;7805;49.554;7.632;2023-11-25T07:56:44;11.83;;;6.30;;
15412;SDS011;7805;49.554;7.632;2023-11-25T07:59:10;16.37;;;7.80;;
15412;SDS011;7805;49.554;7.632;2023-11-25T08:01:36;13.67;;;6.03;;
15412;SDS011;7805;49.554;7.632;2023-11-25T08:04:02;14.77;;;7.17;;
15412;SDS011;7805;49.554;7.632;2023-11-25T08:06:28;15.03;;;6.13;;
15412;SDS011;7805;49.554;7.632;2023-11-25T08:08:54;7.80;;;5.63;;
15412;SDS011;7805;49.554;7.632;2023-11-25T08:11:21;16.80;;;7.37;;
15412;SDS011;7805;49.554;7.632;2023-11-25T08:13:50;13.53;;;7.73;;
15412;SDS011;7805;49.554;7.632;2023-11-25T08:16:16;8.10;;;5.57;;
15412;SDS011;7805;49.554;7.632;2023-11-25T08:18:44;15.70;;;9.33;;
15412;SDS011;7805;49.554;7.632;2023-11-25T08:21:11;19.63;;;10.83;;
15412;SDS011;7805;49.554;7.632;2023-11-25T08:23:38;10.97;;;5.90;;
15412;SDS011;7805;49.554;7.632;2023-11-25T08:26:04;16.07;;;5.67;;
15412;SDS011;7805;49.554;7.632;2023-11-25T08:28:30;13.30;;;5.57;;
15412;SDS011;7805;49.554;7.632;2023-11-25T08:30:55;8.53;;;4.30;;
15412;SDS011;7805;49.554;7.632;2023-11-25T08:33:21;10.30;;;3.80;;
15412;SDS011;7805;49.554;7.632;2023-11-25T08:35:46;6.87;;;2.93;;
15412;SDS011;7805;49.554;7.632;2023-11-25T08:38:12;7.63;;;2.93;;
15412;SDS011;7805;49.554;7.632;2023-11-25T08:40:39;7.37;;;2.20;;
15412;SDS011;7805;49.554;7.632;2023-11-25T08:43:06;5.00;;;2.43;;
15412;SDS011;7805;49.554;7.632;2023-11-25T08:45:37;7.47;;;3.60;;
15412;SDS011;7805;49.554;7.632;2023-11-25T08:48:03;7.27;;;3.90;;
15412;SDS011;7805;49.554;7.632;2023-11-25T08:50:31;12.70;;;4.77;;
15412;SDS011;7805;49.554;7.632;2023-11-25T08:52:56;10.03;;;5.60;;
15412;SDS011;7805;49.554;7.632;2023-11-25T08:55:22;9.53;;;3.50;;
15412;SDS011;7805;49.554;7.632;2023-11-25T08:57:50;12.00;;;3.97;;
15412;SDS011;7805;49.554;7.632;2023-11-25T09:00:16;10.00;;;4.03;;
15412;SDS011;7805;49.554;7.632;2023-11-25T09:02:44;11.10;;;4.80;;
15412;SDS011;7805;49.554;7.632;2023-11-25T09:05:13;11.87;;;3.43;;
15412;SDS011;7805;49.554;7.632;2023-11-25T09:07:43;12.27;;;2.90;;
15412;SDS011;7805;49.554;7.632;2023-11-25T09:10:09;7.73;;;2.43;;
15412;SDS011;7805;49.554;7.632;2023-11-25T09:12:36;15.00;;;2.80;;
15412;SDS011;7805;49.554;7.632;2023-11-25T09:15:02;11.73;;;2.47;;
15412;SDS011;7805;49.554;7.632;2023-11-25T09:17:30;12.10;;;2.23;;
15412;SDS011;7805;49.554;7.632;2023-11-25T09:19:57;14.20;;;3.13;;
15412;SDS011;7805;49.554;7.632;2023-11-25T09:22:24;12.33;;;3.87;;
15412;SDS011;7805;49.554;7.632;2023-11-25T09:24:50;14.83;;;5.13;;
15412;SDS011;7805;49.554;7.632;2023-11-25T09:27:15;16.23;;;5.23;;
15412;SDS011;7805;49.554;7.632;2023-11-25T09:29:41;12.73;;;3.37;;
15412;SDS011;7805;49.554;7.632;2023-11-25T09:32:10;12.47;;;2.80;;
15412;SDS011;7805;49.554;7.632;2023-11-25T09:34:36;15.37;;;3.37;;
15412;SDS011;7805;49.554;7.632;2023-11-25T09:37:03;9.57;;;3.53;;
15412;SDS011;7805;49.554;7.632;2023-11-25T09:39:30;14.57;;;3.37;;
15412;SDS011;7805;49.554;7.632;2023-11-25T09:41:56;15.20;;;3.07;;
15412;SDS011;7805;49.554;7.632;2023-11-25T09:44:22;14.80;;;4.50;;
15412;SDS011;7805;49.554;7.632;2023-11-25T09:46:49;13.80;;;3.60;;
15412;SDS011;7805;49.554;7.632;2023-11-25T09:49:15;8.83;;;3.03;;
15412;SDS011;7805;49.554;7.632;2023-11-25T09:51:41;12.07;;;3.33;;
15412;SDS011;7805;49.554;7.632;2023-11-25T09:54:10;9.60;;;2.90;;
15412;SDS011;7805;49.554;7.632;2023-11-25T09:56:47;10.90;;;3.13;;
15412;SDS011;7805;49.554;7.632;2023-11-25T09:59:14;10.43;;;2.57;;
15412;SDS011;7805;49.554;7.632;2023-11-25T10:01:41;11.13;;;3.10;;
15412;SDS011;7805;49.554;7.632;2023-11-25T10:04:07;12.27;;;3.60;;
15412;SDS011;7805;49.554;7.632;2023-11-25T10:06:36;12.07;;;2.70;;
15412;SDS011;7805;49.554;7.632;2023-11-25T10:09:02;13.70;;;3.13;;
15412;SDS011;7805;49.554;7.632;2023-11-25T10:11:29;14.33;;;3.37;;
15412;SDS011;7805;49.554;7.632;2023-11-25T10:13:57;14.30;;;3.30;;
15412;SDS011;7805;49.554;7.632;2023-11-25T10:16:26;18.83;;;5.40;;
15412;SDS011;7805;49.554;7.632;2023-11-25T10:18:53;14.53;;;3.97;;
15412;SDS011;7805;49.554;7.632;2023-11-25T10:21:19;11.90;;;3.93;;
15412;SDS011;7805;49.554;7.632;2023-11-25T10:23:45;10.10;;;3.70;;
15412;SDS011;7805;49.554;7.632;2023-11-25T10:26:10;11.50;;;3.20;;
15412;SDS011;7805;49.554;7.632;2023-11-25T10:28:41;13.90;;;3.80;;
15412;SDS011;7805;49.554;7.632;2023-11-25T10:31:11;14.47;;;3.80;;
15412;SDS011;7805;49.554;7.632;2023-11-25T10:33:39;8.60;;;2.70;;
15412;SDS011;7805;49.554;7.632;2023-11-25T10:36:07;12.13;;;3.60;;
15412;SDS011;7805;49.554;7.632;2023-11-25T10:38:34;8.27;;;2.83;;
15412;SDS011;7805;49.554;7.632;2023-11-25T10:41:04;12.10;;;3.50;;
15412;SDS011;7805;49.554;7.632;2023-11-25T10:43:34;13.63;;;3.83;;
15412;SDS011;7805;49.554;7.632;2023-11-25T10:46:03;13.80;;;3.53;;
15412;SDS011;7805;49.554;7.632;2023-11-25T10:48:30;11.90;;;3.03;;
15412;SDS011;7805;49.554;7.632;2023-11-25T10:50:57;13.40;;;4.50;;
15412;SDS011;7805;49.554;7.632;2023-11-25T10:53:27;16.07;;;5.00;;
15412;SDS011;7805;49.554;7.632;2023-11-25T10:55:54;10.97;;;3.83;;
15412;SDS011;7805;49.554;7.632;2023-11-25T10:58:21;11.07;;;3.40;;
15412;SDS011;7805;49.554;7.632;2023-11-25T11:00:47;11.63;;;4.47;;
15412;SDS011;7805;49.554;7.632;2023-11-25T11:03:13;16.77;;;4.10;;
15412;SDS011;7805;49.554;7.632;2023-11-25T11:08:33;14.17;;;4.07;;
15412;SDS011;7805;49.554;7.632;2023-11-25T11:11:05;9.30;;;4.97;;
15412;SDS011;7805;49.554;7.632;2023-11-25T11:13:46;20.73;;;9.47;;
15412;SDS011;7805;49.554;7.632;2023-11-25T11:16:37;10.63;;;4.87;;
15412;SDS011;7805;49.554;7.632;2023-11-25T11:19:48;13.90;;;7.03;;
15412;SDS011;7805;49.554;7.632;2023-11-25T11:22:18;10.20;;;5.93;;
15412;SDS011;7805;49.554;7.632;2023-11-25T11:30:42;12.20;;;4.30;;
15412;SDS011;7805;49.554;7.632;2023-11-25T11:33:14;7.03;;;3.70;;
15412;SDS011;7805;49.554;7.632;2023-11-25T11:35:40;9.87;;;3.63;;
15412;SDS011;7805;49.554;7.632;2023-11-25T11:38:29;6.10;;;3.63;;
15412;SDS011;7805;49.554;7.632;2023-11-25T11:40:58;7.00;;;2.90;;
15412;SDS011;7805;49.554;7.632;2023-11-25T11:43:24;5.67;;;2.90;;
15412;SDS011;7805;49.554;7.632;2023-11-25T11:45:50;6.80;;;3.30;;
15412;SDS011;7805;49.554;7.632;2023-11-25T11:48:17;8.13;;;3.23;;
15412;SDS011;7805;49.554;7.632;2023-11-25T11:50:44;9.13;;;3.70;;
15412;SDS011;7805;49.554;7.632;2023-11-25T11:53:16;8.43;;;2.87;;
15412;SDS011;7805;49.554;7.632;2023-11-25T11:55:52;7.50;;;3.37;;
15412;SDS011;7805;49.554;7.632;2023-11-25T11:58:22;8.00;;;3.93;;
15412;SDS011;7805;49.554;7.632;2023-11-25T12:03:30;10.63;;;4.70;;
15412;SDS011;7805;49.554;7.632;2023-11-25T12:05:57;8.77;;;3.67;;
15412;SDS011;7805;49.554;7.632;2023-11-25T12:08:23;14.27;;;3.80;;
15412;SDS011;7805;49.554;7.632;2023-11-25T12:10:49;20.63;;;8.73;;
15412;SDS011;7805;49.554;7.632;2023-11-25T12:13:30;13.23;;;5.27;;
15412;SDS011;7805;49.554;7.632;2023-11-25T12:15:59;11.07;;;4.83;;
15412;SDS011;7805;49.554;7.632;2023-11-25T12:18:28;10.20;;;4.57;;
15412;SDS011;7805;49.554;7.632;2023-11-25T12:20:55;13.23;;;4.60;;
15412;SDS011;7805;49.554;7.632;2023-11-25T12:23:23;5.83;;;3.80;;
15412;SDS011;7805;49.554;7.632;2023-11-25T12:25:50;8.80;;;3.17;;
15412;SDS011;7805;49.554;7.632;2023-11-25T12:28:16;10.30;;;3.57;;
15412;SDS011;7805;49.554;7.632;2023-11-25T12:30:42;7.87;;;3.20;;
15412;SDS011;7805;49.554;7.632;2023-11-25T12:33:08;6.80;;;2.83;;
15412;SDS011;7805;49.554;7.632;2023-11-25T12:35:35;7.80;;;3.37;;
15412;SDS011;7805;49.554;7.632;2023-11-25T12:38:04;7.97;;;3.47;;
15412;SDS011;7805;49.554;7.632;2023-11-25T12:40:32;9.13;;;2.97;;
15412;SDS011;7805;49.554;7.632;2023-11-25T12:42:59;6.37;;;2.80;;
15412;SDS011;7805;49.554;7.632;2023-11-25T12:48:08;8.23;;;2.60;;
15412;SDS011;7805;49.554;7.632;2023-11-25T12:53:25;8.60;;;3.23;;
15412;SDS011;7805;49.554;7.632;2023-11-25T12:55:50;3.80;;;2.20;;
15412;SDS011;7805;49.554;7.632;2023-11-25T12:58:17;5.00;;;2.50;;
15412;SDS011;7805;49.554;7.632;2023-11-25T13:00:44;4.90;;;2.20;;
15412;SDS011;7805;49.554;7.632;2023-11-25T13:03:11;4.67;;;1.80;;
15412;SDS011;7805;49.554;7.632;2023-11-25T13:05:45;3.27;;;1.67;;
15412;SDS011;7805;49.554;7.632;2023-11-25T13:08:21;4.83;;;1.63;;
15412;SDS011;7805;49.554;7.632;2023-11-25T13:10:48;8.23;;;1.57;;
15412;SDS011;7805;49.554;7.632;2023-11-25T13:13:14;5.13;;;1.67;;
15412;SDS011;7805;49.554;7.632;2023-11-25T13:15:40;4.90;;;2.00;;
15412;SDS011;7805;49.554;7.632;2023-11-25T13:18:06;2.00;;;1.47;;
15412;SDS011;7805;49.554;7.632;2023-11-25T13:20:32;2.17;;;1.53;;
15412;SDS011;7805;49.554;7.632;2023-11-25T13:22:58;4.93;;;2.03;;
15412;SDS011;7805;49.554;7.632;2023-11-25T13:25:24;3.17;;;1.23;;
15412;SDS011;7805;49.554;7.632;2023-11-25T13:27:50;2.10;;;1.30;;
15412;SDS011;7805;49.554;7.632;2023-11-25T13:30:15;2.10;;;1.50;;
15412;SDS011;7805;49.554;7.632;2023-11-25T13:32:41;4.23;;;1.80;;
15412;SDS011;7805;49.554;7.632;2023-11-25T13:35:07;2.80;;;1.20;;
15412;SDS011;7805;49.554;7.632;2023-11-25T13:37:33;4.13;;;1.10;;
15412;SDS011;7805;49.554;7.632;2023-11-25T13:40:01;1.63;;;1.10;;
15412;SDS011;7805;49.554;7.632;2023-11-25T13:42:37;1.07;;;0.93;;
15412;SDS011;7805;49.554;7.632;2023-11-25T13:45:03;1.30;;;1.20;;
15412;SDS011;7805;49.554;7.632;2023-11-25T13:47:29;4.30;;;1.30;;
15412;SDS011;7805;49.554;7.632;2023-11-25T13:49:54;1.73;;;1.00;;
15412;SDS011;7805;49.554;7.632;2023-11-25T13:52:20;1.73;;;0.90;;
15412;SDS011;7805;49.554;7.632;2023-11-25T13:54:46;3.47;;;1.40;;
15412;SDS011;7805;49.554;7.632;2023-11-25T13:57:11;2.13;;;1.07;;
15412;SDS011;7805;49.554;7.632;2023-11-25T13:59:37;7.83;;;1.63;;
15412;SDS011;7805;49.554;7.632;2023-11-25T14:02:03;2.27;;;1.00;;
15412;SDS011;7805;49.554;7.632;2023-11-25T14:04:28;0.93;;;0.93;;
15412;SDS011;7805;49.554;7.632;2023-11-25T14:06:56;1.67;;;1.20;;
15412;SDS011;7805;49.554;7.632;2023-11-25T14:09:24;2.63;;;2.43;;
15412;SDS011;7805;49.554;7.632;2023-11-25T14:11:51;2.73;;;1.83;;
15412;SDS011;7805;49.554;7.632;2023-11-25T14:14:17;1.20;;;1.10;;
15412;SDS011;7805;49.554;7.632;2023-11-25T14:16:46;1.17;;;0.70;;
15412;SDS011;7805;49.554;7.632;2023-11-25T14:19:13;1.37;;;0.90;;
15412;SDS011;7805;49.554;7.632;2023-11-25T14:21:38;1.90;;;1.10;;
15412;SDS011;7805;49.554;7.632;2023-11-25T14:24:04;1.40;;;1.03;;
15412;SDS011;7805;49.554;7.632;2023-11-25T14:26:31;2.40;;;0.80;;
15412;SDS011;7805;49.554;7.632;2023-11-25T14:28:59;2.47;;;1.00;;
15412;SDS011;7805;49.554;7.632;2023-11-25T14:31:24;2.27;;;1.87;;
15412;SDS011;7805;49.554;7.632;2023-11-25T14:33:50;4.03;;;1.20;;
15412;SDS011;7805;49.554;7.632;2023-11-25T14:36:15;1.03;;;0.80;;
15412;SDS011;7805;49.554;7.632;2023-11-25T14:38:42;1.00;;;0.90;;
15412;SDS011;7805;49.554;7.632;2023-11-25T14:41:07;3.83;;;1.60;;
15412;SDS011;7805;49.554;7.632;2023-11-25T14:43:33;1.60;;;1.13;;
15412;SDS011;7805;49.554;7.632;2023-11-25T14:45:59;3.63;;;1.00;;
15412;SDS011;7805;49.554;7.632;2023-11-25T14:48:25;5.20;;;2.43;;
15412;SDS011;7805;49.554;7.632;2023-11-25T14:50:51;0.90;;;0.90;;
15412;SDS011;7805;49.554;7.632;2023-11-25T14:53:17;3.07;;;1.10;;
15412;SDS011;7805;49.554;7.632;2023-11-25T14:55:43;2.73;;;1.83;;
15412;SDS011;7805;49.554;7.632;2023-11-25T14:58:08;3.73;;;2.93;;
15412;SDS011;7805;49.554;7.632;2023-11-25T15:00:35;3.00;;;2.37;;
15412;SDS011;7805;49.554;7.632;2023-11-25T15:03:04;6.53;;;3.53;;
15412;SDS011;7805;49.554;7.632;2023-11-25T15:05:29;2.73;;;1.83;;
15412;SDS011;7805;49.554;7.632;2023-11-25T15:07:55;2.57;;;1.80;;
15412;SDS011;7805;49.554;7.632;2023-11-25T15:10:20;3.87;;;3.47;;
15412;SDS011;7805;49.554;7.632;2023-11-25T15:12:49;14.27;;;9.27;;
15412;SDS011;7805;49.554;7.632;2023-11-25T15:15:17;3.93;;;2.30;;